Time;durP1;ratioP1;P1;durP2;ratioP2;P2;SDS_P1;SDS_P2;PMS_P1;PMS_P2;Temp;Humidity;BMP_temperature;BMP_pressure;BME280_temperature;BME280_humidity;BME280_pressure;Samples;Min_cycle;Max_cycle;Signal;HPM_P1;HPM_P2
2020/12/25 00:00:07;;;;;;;11.30;8.05;;;;;;;;;;4996529;28;20061;-65
2020/12/25 00:02:32;;;;;;;13.35;8.63;;;;;;;;;;5001013;28;20528;-65
2020/12/25 00:04:58;;;;;;;13.32;7.68;;;;;;;;;;4997646;28;20034;-65
2020/12/25 00:07:23;;;;;;;9.82;7.82;;;;;;;;;;4999109;28;20038;-65
2020/12/25 00:09:48;;;;;;;11.55;7.10;;;;;;;;;;5011640;28;20133;-65
2020/12/25 00:12:13;;;;;;;9.93;7.07;;;;;;;;;;4998668;28;20129;-65
2020/12/25 00:14:39;;;;;;;11.40;7.20;;;;;;;;;;4997682;28;20428;-65
2020/12/25 00:17:04;;;;;;;10.43;7.32;;;;;;;;;;4996878;28;20048;-65
2020/12/25 00:19:30;;;;;;;11.93;7.57;;;;;;;;;;5000702;28;20045;-65
2020/12/25 00:21:55;;;;;;;8.57;6.40;;;;;;;;;;4996942;28;20026;-65
2020/12/25 00:24:20;;;;;;;10.63;7.22;;;;;;;;;;4998930;28;20038;-65
2020/12/25 00:26:46;;;;;;;12.30;6.70;;;;;;;;;;4996981;28;20041;-65
2020/12/25 00:29:11;;;;;;;10.20;7.15;;;;;;;;;;4997242;28;20034;-65
2020/12/25 00:31:38;;;;;;;13.00;7.80;;;;;;;;;;4996731;28;20030;-65
2020/12/25 00:34:08;;;;;;;9.32;6.53;;;;;;;;;;4998973;28;20053;-65
2020/12/25 00:36:35;;;;;;;11.57;7.45;;;;;;;;;;4997981;28;20465;-65
2020/12/25 00:39:09;;;;;;;16.88;7.78;;;;;;;;;;4995544;28;20072;-64
2020/12/25 00:41:34;;;;;;;13.60;7.18;;;;;;;;;;4995693;28;20030;-64
2020/12/25 00:44:00;;;;;;;10.20;5.72;;;;;;;;;;4996047;28;20034;-64
2020/12/25 00:46:25;;;;;;;12.68;7.13;;;;;;;;;;4998395;28;20064;-66
2020/12/25 00:48:51;;;;;;;11.75;7.07;;;;;;;;;;4995560;28;20041;-65
2020/12/25 00:51:19;;;;;;;15.60;7.30;;;;;;;;;;4994997;28;20041;-64
2020/12/25 00:53:45;;;;;;;11.25;7.03;;;;;;;;;;4998499;28;20034;-64
2020/12/25 00:56:11;;;;;;;11.45;6.50;;;;;;;;;;4997390;28;20529;-64
2020/12/25 00:58:37;;;;;;;9.00;6.00;;;;;;;;;;4996090;28;20041;-64
2020/12/25 01:01:04;;;;;;;8.68;6.30;;;;;;;;;;4994706;28;20030;-64
2020/12/25 01:03:29;;;;;;;9.27;6.85;;;;;;;;;;4998754;28;20049;-64
2020/12/25 01:05:55;;;;;;;12.02;6.65;;;;;;;;;;4995664;28;20457;-64
2020/12/25 01:08:20;;;;;;;8.68;6.57;;;;;;;;;;4997116;28;20091;-64
2020/12/25 01:10:46;;;;;;;10.82;6.15;;;;;;;;;;4996444;28;20034;-64
2020/12/25 01:13:12;;;;;;;10.98;6.60;;;;;;;;;;4996929;28;20046;-64
2020/12/25 01:15:37;;;;;;;9.73;5.47;;;;;;;;;;4994713;28;20030;-64
2020/12/25 01:18:03;;;;;;;9.30;5.13;;;;;;;;;;4995508;28;20162;-64
2020/12/25 01:20:29;;;;;;;7.30;5.22;;;;;;;;;;4995778;28;20030;-65
2020/12/25 01:22:54;;;;;;;10.68;5.38;;;;;;;;;;4993986;28;20369;-64
2020/12/25 01:25:19;;;;;;;12.02;5.93;;;;;;;;;;4995151;28;20034;-64
2020/12/25 01:27:45;;;;;;;11.55;6.10;;;;;;;;;;4994650;28;20587;-65
2020/12/25 01:30:10;;;;;;;9.52;5.55;;;;;;;;;;4996104;28;20034;-64
2020/12/25 01:32:35;;;;;;;12.93;6.60;;;;;;;;;;4995432;28;20436;-65
2020/12/25 01:35:02;;;;;;;9.40;5.28;;;;;;;;;;4997558;28;20061;-64
2020/12/25 01:37:27;;;;;;;13.20;5.50;;;;;;;;;;4998299;28;20124;-64
2020/12/25 01:39:53;;;;;;;10.73;6.03;;;;;;;;;;4995803;28;20148;-64
2020/12/25 01:42:18;;;;;;;10.93;5.40;;;;;;;;;;4995353;28;20057;-64
2020/12/25 01:44:43;;;;;;;10.48;5.78;;;;;;;;;;4996618;28;20095;-64
2020/12/25 01:47:09;;;;;;;10.07;5.03;;;;;;;;;;4996507;28;20046;-65
2020/12/25 01:49:34;;;;;;;9.32;5.50;;;;;;;;;;4997073;28;20041;-64
2020/12/25 01:52:00;;;;;;;9.15;5.70;;;;;;;;;;4995074;28;20038;-65
2020/12/25 01:54:26;;;;;;;8.30;5.18;;;;;;;;;;4998067;28;20069;-64
2020/12/25 01:56:53;;;;;;;12.82;5.07;;;;;;;;;;4995585;28;20080;-64
2020/12/25 01:59:18;;;;;;;12.82;5.30;;;;;;;;;;4992359;28;20069;-65
2020/12/25 02:01:44;;;;;;;7.38;4.85;;;;;;;;;;4995504;28;20335;-65
2020/12/25 02:04:09;;;;;;;8.10;5.13;;;;;;;;;;4995561;28;20065;-65
2020/12/25 02:06:38;;;;;;;7.70;5.10;;;;;;;;;;4995319;28;20030;-64
2020/12/25 02:09:04;;;;;;;7.78;4.70;;;;;;;;;;4994360;28;20130;-65
2020/12/25 02:11:32;;;;;;;8.15;5.55;;;;;;;;;;4996074;28;20662;-65
2020/12/25 02:13:58;;;;;;;7.47;4.75;;;;;;;;;;4995237;28;20045;-65
2020/12/25 02:16:23;;;;;;;6.95;5.20;;;;;;;;;;4994284;28;20038;-64
2020/12/25 02:18:48;;;;;;;6.43;5.00;;;;;;;;;;4995856;28;20035;-65
2020/12/25 02:21:14;;;;;;;9.95;4.70;;;;;;;;;;4995867;28;20093;-64
2020/12/25 02:23:39;;;;;;;8.90;5.30;;;;;;;;;;4995520;28;20108;-64
2020/12/25 02:26:04;;;;;;;7.72;4.85;;;;;;;;;;4994998;28;20042;-65
2020/12/25 02:28:30;;;;;;;8.07;4.80;;;;;;;;;;4998757;28;20026;-64
2020/12/25 02:30:55;;;;;;;8.88;4.40;;;;;;;;;;4995747;28;20120;-64
2020/12/25 02:33:21;;;;;;;8.07;4.43;;;;;;;;;;4999999;28;20461;-65
2020/12/25 02:35:46;;;;;;;5.38;4.35;;;;;;;;;;4999935;28;20141;-64
2020/12/25 02:38:11;;;;;;;12.98;4.32;;;;;;;;;;4999649;28;20113;-64
2020/12/25 02:40:37;;;;;;;6.50;4.03;;;;;;;;;;4999557;28;20105;-64
2020/12/25 02:43:02;;;;;;;5.68;3.85;;;;;;;;;;4993521;28;20061;-65
2020/12/25 02:45:27;;;;;;;7.55;4.13;;;;;;;;;;5000831;28;20038;-64
2020/12/25 02:47:52;;;;;;;6.60;3.47;;;;;;;;;;4998119;28;20022;-64
2020/12/25 02:50:18;;;;;;;8.48;4.30;;;;;;;;;;4999530;28;20042;-65
2020/12/25 02:52:43;;;;;;;6.65;3.63;;;;;;;;;;4996563;28;20037;-64
2020/12/25 02:55:09;;;;;;;8.43;3.80;;;;;;;;;;4999449;28;20069;-64
2020/12/25 02:57:34;;;;;;;5.07;3.22;;;;;;;;;;4999664;28;20041;-64
2020/12/25 02:59:59;;;;;;;9.70;3.70;;;;;;;;;;4997653;28;20034;-64
2020/12/25 03:02:24;;;;;;;9.15;3.72;;;;;;;;;;4997623;28;20171;-64
2020/12/25 03:04:50;;;;;;;9.65;4.28;;;;;;;;;;4998377;28;20022;-65
2020/12/25 03:07:15;;;;;;;13.13;5.20;;;;;;;;;;4998498;28;20046;-65
2020/12/25 03:09:40;;;;;;;9.82;4.25;;;;;;;;;;4998789;28;20037;-65
2020/12/25 03:12:07;;;;;;;12.88;5.70;;;;;;;;;;4993198;28;20351;-65
2020/12/25 03:14:32;;;;;;;9.18;4.93;;;;;;;;;;4999150;28;20044;-65
2020/12/25 03:16:58;;;;;;;6.70;4.07;;;;;;;;;;4997269;28;20022;-65
2020/12/25 03:19:23;;;;;;;7.93;3.83;;;;;;;;;;4996347;28;20061;-65
2020/12/25 03:21:48;;;;;;;6.53;3.25;;;;;;;;;;4997957;28;20120;-65
2020/12/25 03:24:14;;;;;;;7.95;2.92;;;;;;;;;;4997103;28;20053;-65
2020/12/25 03:26:39;;;;;;;7.60;3.00;;;;;;;;;;4997500;28;20488;-65
2020/12/25 03:29:05;;;;;;;5.88;2.72;;;;;;;;;;4997007;28;20038;-64
2020/12/25 03:31:30;;;;;;;8.23;2.70;;;;;;;;;;4999094;28;20072;-65
2020/12/25 03:33:55;;;;;;;9.43;2.95;;;;;;;;;;4997667;28;20030;-65
2020/12/25 03:36:21;;;;;;;4.97;2.75;;;;;;;;;;4995501;28;20042;-65
2020/12/25 03:38:47;;;;;;;5.43;3.40;;;;;;;;;;5013775;28;20034;-65
2020/12/25 03:41:12;;;;;;;3.75;2.38;;;;;;;;;;4998457;28;20042;-65
2020/12/25 03:43:37;;;;;;;4.47;2.92;;;;;;;;;;4996717;28;20080;-65
2020/12/25 03:46:03;;;;;;;5.80;3.47;;;;;;;;;;4996066;28;20705;-65
2020/12/25 03:48:31;;;;;;;7.78;3.42;;;;;;;;;;4999062;28;20038;-65
2020/12/25 03:50:56;;;;;;;5.07;2.95;;;;;;;;;;4998740;28;20089;-65
2020/12/25 03:53:22;;;;;;;7.82;3.13;;;;;;;;;;4995292;28;20038;-65
2020/12/25 03:55:47;;;;;;;4.75;2.60;;;;;;;;;;4995932;28;20045;-64
2020/12/25 03:58:12;;;;;;;5.38;2.33;;;;;;;;;;4998386;28;20041;-65
2020/12/25 04:00:38;;;;;;;5.50;2.58;;;;;;;;;;4995798;28;20446;-65
2020/12/25 04:03:03;;;;;;;9.95;2.75;;;;;;;;;;4992959;28;20031;-65
2020/12/25 04:05:28;;;;;;;5.28;2.35;;;;;;;;;;4998707;28;20034;-65
2020/12/25 04:07:54;;;;;;;4.70;3.08;;;;;;;;;;4996765;28;20046;-65
2020/12/25 04:10:19;;;;;;;4.47;3.00;;;;;;;;;;4994215;28;20037;-66
2020/12/25 04:12:44;;;;;;;5.40;2.88;;;;;;;;;;4997743;28;20026;-65
2020/12/25 04:15:10;;;;;;;5.32;2.80;;;;;;;;;;4997326;28;20038;-65
2020/12/25 04:17:35;;;;;;;4.35;2.60;;;;;;;;;;4997481;28;20477;-65
2020/12/25 04:20:00;;;;;;;6.82;2.80;;;;;;;;;;4995025;28;20458;-65
2020/12/25 04:22:26;;;;;;;5.30;2.55;;;;;;;;;;4999302;28;20064;-65
2020/12/25 04:24:51;;;;;;;6.55;3.05;;;;;;;;;;4995860;28;20038;-66
2020/12/25 04:27:16;;;;;;;5.65;2.72;;;;;;;;;;4997941;28;20034;-66
2020/12/25 04:29:42;;;;;;;7.20;2.88;;;;;;;;;;4995270;28;20473;-65
2020/12/25 04:32:07;;;;;;;4.15;2.58;;;;;;;;;;4994768;28;20045;-64
2020/12/25 04:34:32;;;;;;;9.38;2.95;;;;;;;;;;5001559;28;20030;-65
2020/12/25 04:36:58;;;;;;;4.93;2.60;;;;;;;;;;4995887;28;20041;-65
2020/12/25 04:39:23;;;;;;;6.97;2.63;;;;;;;;;;4997798;28;20030;-65
2020/12/25 04:41:49;;;;;;;7.53;2.80;;;;;;;;;;4992489;28;20068;-65
2020/12/25 04:44:15;;;;;;;8.02;2.33;;;;;;;;;;4996432;28;20195;-65
2020/12/25 04:46:40;;;;;;;5.55;3.00;;;;;;;;;;4995751;28;20544;-66
2020/12/25 04:49:07;;;;;;;5.90;3.22;;;;;;;;;;4995623;28;20045;-65
2020/12/25 04:51:33;;;;;;;4.80;2.72;;;;;;;;;;4993107;28;20050;-66
2020/12/25 04:53:58;;;;;;;5.97;3.25;;;;;;;;;;4993418;28;20034;-65
2020/12/25 04:56:24;;;;;;;5.30;2.40;;;;;;;;;;4988610;28;20046;-60
2020/12/25 04:58:51;;;;;;;5.55;2.58;;;;;;;;;;4996364;28;20064;-59
2020/12/25 05:01:16;;;;;;;6.75;2.85;;;;;;;;;;4996740;28;20465;-60
2020/12/25 05:03:44;;;;;;;3.63;2.38;;;;;;;;;;4995163;28;20041;-59
2020/12/25 05:06:14;;;;;;;4.25;2.30;;;;;;;;;;4995772;28;20107;-59
2020/12/25 05:08:47;;;;;;;4.90;2.22;;;;;;;;;;4993006;28;20389;-60
2020/12/25 05:11:14;;;;;;;5.45;2.83;;;;;;;;;;4995046;28;20038;-59
2020/12/25 05:13:44;;;;;;;7.78;2.47;;;;;;;;;;4996337;28;20042;-60
2020/12/25 05:16:10;;;;;;;5.43;1.98;;;;;;;;;;4994724;28;20065;-60
2020/12/25 05:18:43;;;;;;;4.05;2.30;;;;;;;;;;4994889;28;20030;-59
2020/12/25 05:21:11;;;;;;;4.40;2.58;;;;;;;;;;4993642;28;20042;-60
2020/12/25 05:23:38;;;;;;;4.78;2.50;;;;;;;;;;4995168;28;20045;-59
2020/12/25 05:26:06;;;;;;;3.05;1.95;;;;;;;;;;4996281;28;20046;-59
2020/12/25 05:28:37;;;;;;;4.60;2.38;;;;;;;;;;4997223;28;20041;-59
2020/12/25 05:31:03;;;;;;;5.05;2.22;;;;;;;;;;4995273;28;20034;-60
2020/12/25 05:33:30;;;;;;;3.97;2.30;;;;;;;;;;4997533;28;20123;-59
2020/12/25 05:35:55;;;;;;;4.60;2.45;;;;;;;;;;4996938;28;20053;-59
2020/12/25 05:38:22;;;;;;;4.10;2.22;;;;;;;;;;4996854;28;20565;-60
2020/12/25 05:40:48;;;;;;;4.15;2.45;;;;;;;;;;4996596;28;20380;-59
2020/12/25 05:43:16;;;;;;;5.18;2.38;;;;;;;;;;4997964;28;20030;-59
2020/12/25 05:45:42;;;;;;;5.25;2.88;;;;;;;;;;4994274;28;20068;-59
2020/12/25 05:48:08;;;;;;;7.80;3.50;;;;;;;;;;4996071;28;20070;-60
2020/12/25 05:50:35;;;;;;;7.07;3.17;;;;;;;;;;4996700;28;20133;-60
2020/12/25 05:53:01;;;;;;;4.22;2.28;;;;;;;;;;4994616;28;20034;-59
2020/12/25 05:55:27;;;;;;;5.97;3.20;;;;;;;;;;4996623;28;20088;-60
2020/12/25 05:57:54;;;;;;;5.15;2.67;;;;;;;;;;4990892;28;20036;-59
2020/12/25 06:00:21;;;;;;;3.95;2.45;;;;;;;;;;4994863;28;20092;-59
2020/12/25 06:02:48;;;;;;;5.68;2.75;;;;;;;;;;4991833;28;20034;-59
2020/12/25 06:05:14;;;;;;;6.78;3.17;;;;;;;;;;4992669;28;20070;-59
2020/12/25 06:07:59;;;;;;;5.85;3.00;;;;;;;;;;4990973;28;20027;-59
2020/12/25 06:10:26;;;;;;;7.57;3.13;;;;;;;;;;4991603;28;20037;-59
2020/12/25 06:12:53;;;;;;;5.05;3.15;;;;;;;;;;4991413;28;20085;-59
2020/12/25 06:15:19;;;;;;;5.57;2.80;;;;;;;;;;4988615;28;20070;-60
2020/12/25 06:18:15;;;;;;;4.65;3.10;;;;;;;;;;4993982;28;20030;-59
2020/12/25 06:20:51;;;;;;;9.75;3.72;;;;;;;;;;4989147;28;20176;-59
2020/12/25 06:23:16;;;;;;;7.63;3.58;;;;;;;;;;4992965;28;20473;-59
2020/12/25 06:25:42;;;;;;;5.88;3.30;;;;;;;;;;4989617;28;20033;-59
2020/12/25 06:28:07;;;;;;;4.35;3.20;;;;;;;;;;4987834;28;20401;-59
2020/12/25 06:30:34;;;;;;;6.13;2.60;;;;;;;;;;4990495;28;20674;-59
2020/12/25 06:33:00;;;;;;;5.35;3.13;;;;;;;;;;4988994;28;20034;-59
2020/12/25 06:35:33;;;;;;;5.20;2.95;;;;;;;;;;4993267;28;20029;-60
2020/12/25 06:37:59;;;;;;;3.83;2.50;;;;;;;;;;4992441;28;20093;-59
2020/12/25 06:40:26;;;;;;;4.97;2.05;;;;;;;;;;4994986;28;20038;-59
2020/12/25 06:42:55;;;;;;;4.18;2.63;;;;;;;;;;4995189;28;20585;-59
2020/12/25 06:45:30;;;;;;;5.13;2.47;;;;;;;;;;4996049;28;20044;-59
2020/12/25 06:48:12;;;;;;;4.07;2.70;;;;;;;;;;4989273;28;20041;-59
2020/12/25 06:50:42;;;;;;;4.82;2.65;;;;;;;;;;4993129;28;20070;-59
2020/12/25 06:53:07;;;;;;;5.37;3.13;;;;;;;;;;4993137;28;20117;-59
2020/12/25 06:55:44;;;;;;;4.90;2.85;;;;;;;;;;4993978;28;20137;-59
2020/12/25 06:58:10;;;;;;;5.07;3.25;;;;;;;;;;4994180;28;20124;-60
2020/12/25 07:00:39;;;;;;;5.05;3.30;;;;;;;;;;4995314;28;20458;-59
2020/12/25 07:03:14;;;;;;;5.68;3.10;;;;;;;;;;4995219;28;20105;-59
2020/12/25 07:05:49;;;;;;;7.10;3.33;;;;;;;;;;4994713;28;20026;-59
2020/12/25 07:08:28;;;;;;;5.70;3.33;;;;;;;;;;4995812;28;20030;-60
2020/12/25 07:11:08;;;;;;;5.43;3.05;;;;;;;;;;4990435;28;20029;-59
2020/12/25 07:13:37;;;;;;;6.40;3.40;;;;;;;;;;4994958;28;20038;-59
2020/12/25 07:16:04;;;;;;;7.18;2.60;;;;;;;;;;4994014;28;20046;-59
2020/12/25 07:18:30;;;;;;;6.30;3.67;;;;;;;;;;4997952;28;20061;-59
2020/12/25 07:21:08;;;;;;;4.85;3.08;;;;;;;;;;5002080;28;20394;-60
2020/12/25 07:23:41;;;;;;;5.03;3.65;;;;;;;;;;4999549;28;20030;-59
2020/12/25 07:26:06;;;;;;;4.50;3.00;;;;;;;;;;4997658;28;20042;-59
2020/12/25 07:28:32;;;;;;;4.63;3.03;;;;;;;;;;4999434;28;20060;-60
2020/12/25 07:30:57;;;;;;;6.53;3.85;;;;;;;;;;4997650;28;20119;-59
2020/12/25 07:33:24;;;;;;;7.72;3.33;;;;;;;;;;4996318;28;20041;-59
2020/12/25 07:35:50;;;;;;;5.28;3.55;;;;;;;;;;4996239;28;20049;-59
2020/12/25 07:38:16;;;;;;;5.50;3.70;;;;;;;;;;4999188;28;20042;-60
2020/12/25 07:40:43;;;;;;;6.53;3.97;;;;;;;;;;4997771;28;20049;-59
2020/12/25 07:43:09;;;;;;;8.93;4.45;;;;;;;;;;4995272;28;20050;-60
2020/12/25 07:45:38;;;;;;;8.02;3.80;;;;;;;;;;4998396;28;20107;-59
2020/12/25 07:48:05;;;;;;;5.05;3.53;;;;;;;;;;4997145;28;20038;-59
2020/12/25 07:50:39;;;;;;;5.10;3.20;;;;;;;;;;4998340;28;20037;-59
2020/12/25 07:53:12;;;;;;;4.35;3.10;;;;;;;;;;4994529;28;20674;-59
2020/12/25 07:55:39;;;;;;;4.93;3.20;;;;;;;;;;4997679;28;20137;-59
2020/12/25 07:58:05;;;;;;;5.07;3.40;;;;;;;;;;4996546;28;20046;-59
2020/12/25 08:00:31;;;;;;;5.72;3.90;;;;;;;;;;4997086;28;20448;-59
2020/12/25 08:02:58;;;;;;;4.90;3.38;;;;;;;;;;4990043;28;20126;-59
2020/12/25 08:05:26;;;;;;;5.82;3.40;;;;;;;;;;4997201;28;20034;-59
2020/12/25 08:07:52;;;;;;;5.40;3.58;;;;;;;;;;4996036;28;20038;-59
2020/12/25 08:10:18;;;;;;;5.88;3.83;;;;;;;;;;4996700;28;20097;-59
2020/12/25 08:12:47;;;;;;;5.20;3.67;;;;;;;;;;4996030;28;20034;-59
2020/12/25 08:15:13;;;;;;;6.03;3.50;;;;;;;;;;4995667;28;20127;-59
2020/12/25 08:17:38;;;;;;;6.47;3.83;;;;;;;;;;4996923;28;20435;-59
2020/12/25 08:20:04;;;;;;;6.03;3.40;;;;;;;;;;4997036;28;20038;-59
2020/12/25 08:22:29;;;;;;;5.22;3.55;;;;;;;;;;4998437;28;20351;-59
2020/12/25 08:24:56;;;;;;;4.80;3.35;;;;;;;;;;4996826;28;20085;-59
2020/12/25 08:27:21;;;;;;;7.00;3.90;;;;;;;;;;4997340;28;20042;-59
2020/12/25 08:29:51;;;;;;;5.22;3.33;;;;;;;;;;4994895;28;20053;-59
2020/12/25 08:32:17;;;;;;;5.05;3.08;;;;;;;;;;5000227;28;20030;-59
2020/12/25 08:34:42;;;;;;;5.13;3.40;;;;;;;;;;4996329;28;20049;-59
2020/12/25 08:37:09;;;;;;;5.72;3.20;;;;;;;;;;4992716;28;20034;-59
2020/12/25 08:39:35;;;;;;;4.97;3.05;;;;;;;;;;4995699;28;20029;-59
2020/12/25 08:42:00;;;;;;;6.55;2.97;;;;;;;;;;4994496;28;20026;-59
2020/12/25 08:44:26;;;;;;;6.63;3.25;;;;;;;;;;4995575;28;20052;-60
2020/12/25 08:47:15;;;;;;;6.47;2.88;;;;;;;;;;4992847;28;20092;-58
2020/12/25 08:49:40;;;;;;;9.38;3.85;;;;;;;;;;4994955;28;20030;-60
2020/12/25 08:52:20;;;;;;;7.22;3.10;;;;;;;;;;4995424;28;20030;-59
2020/12/25 08:54:54;;;;;;;5.50;2.38;;;;;;;;;;4995216;28;20099;-60
2020/12/25 08:57:20;;;;;;;4.53;2.40;;;;;;;;;;5002582;28;20112;-60
2020/12/25 08:59:45;;;;;;;3.97;2.65;;;;;;;;;;4995838;28;20465;-58
2020/12/25 09:02:10;;;;;;;6.47;2.97;;;;;;;;;;4998298;28;20076;-59
2020/12/25 09:04:36;;;;;;;6.50;4.15;;;;;;;;;;4996613;28;20390;-59
2020/12/25 09:07:01;;;;;;;11.63;6.85;;;;;;;;;;4995868;28;20026;-59
2020/12/25 09:09:26;;;;;;;7.78;4.15;;;;;;;;;;4996845;28;20030;-58
2020/12/25 09:11:52;;;;;;;8.90;3.40;;;;;;;;;;4995550;28;20492;-59
2020/12/25 09:14:17;;;;;;;7.13;4.18;;;;;;;;;;4996477;28;20034;-59
2020/12/25 09:16:43;;;;;;;12.60;4.65;;;;;;;;;;4996375;28;20057;-58
2020/12/25 09:19:08;;;;;;;5.85;3.38;;;;;;;;;;4996718;28;20046;-58
2020/12/25 09:21:33;;;;;;;7.57;3.95;;;;;;;;;;4997392;28;20405;-58
2020/12/25 09:23:59;;;;;;;6.45;3.40;;;;;;;;;;4997189;28;20075;-58
2020/12/25 09:26:24;;;;;;;9.90;5.28;;;;;;;;;;4997260;28;20081;-58
2020/12/25 09:28:49;;;;;;;4.95;3.03;;;;;;;;;;4995655;28;20034;-59
2020/12/25 09:31:15;;;;;;;4.38;2.60;;;;;;;;;;4994562;28;20038;-59
2020/12/25 09:33:41;;;;;;;5.88;3.33;;;;;;;;;;4997367;28;20377;-58
2020/12/25 09:36:08;;;;;;;5.57;3.47;;;;;;;;;;4996148;28;20365;-59
2020/12/25 09:38:34;;;;;;;5.25;2.65;;;;;;;;;;4994151;28;20461;-59
2020/12/25 09:41:00;;;;;;;7.93;2.60;;;;;;;;;;4991680;28;20100;-58
2020/12/25 09:43:28;;;;;;;9.40;3.08;;;;;;;;;;4999022;28;20417;-58
2020/12/25 09:45:53;;;;;;;5.28;3.28;;;;;;;;;;4991369;28;20038;-59
2020/12/25 09:48:19;;;;;;;4.22;2.30;;;;;;;;;;4992475;28;20454;-59
2020/12/25 09:50:44;;;;;;;6.15;3.13;;;;;;;;;;4993983;28;20058;-59
2020/12/25 09:53:10;;;;;;;4.55;2.35;;;;;;;;;;4996169;28;20038;-58
2020/12/25 09:55:37;;;;;;;5.50;3.17;;;;;;;;;;4995666;28;20038;-58
2020/12/25 09:58:04;;;;;;;3.78;2.15;;;;;;;;;;4993362;28;20254;-59
2020/12/25 10:00:29;;;;;;;4.40;2.30;;;;;;;;;;4997268;28;20123;-59
2020/12/25 10:02:55;;;;;;;3.67;1.95;;;;;;;;;;4995508;28;20038;-60
2020/12/25 10:05:20;;;;;;;4.22;1.88;;;;;;;;;;4996276;28;20065;-59
2020/12/25 10:07:46;;;;;;;3.78;2.20;;;;;;;;;;4995277;28;20541;-59
2020/12/25 10:10:14;;;;;;;3.40;2.13;;;;;;;;;;4995942;28;20109;-59
2020/12/25 10:12:39;;;;;;;2.92;1.58;;;;;;;;;;4994853;28;20424;-58
2020/12/25 10:15:04;;;;;;;3.38;1.63;;;;;;;;;;4991707;28;20038;-59
2020/12/25 10:17:30;;;;;;;4.18;2.13;;;;;;;;;;4996664;28;20049;-59
2020/12/25 10:19:55;;;;;;;4.68;2.50;;;;;;;;;;4994793;28;20030;-59
2020/12/25 10:22:22;;;;;;;4.72;2.10;;;;;;;;;;4996163;28;20029;-59
2020/12/25 10:24:47;;;;;;;5.85;2.15;;;;;;;;;;4995669;28;20049;-59
2020/12/25 10:27:13;;;;;;;3.58;1.60;;;;;;;;;;4995776;28;20073;-59
2020/12/25 10:29:38;;;;;;;3.80;1.50;;;;;;;;;;4994779;28;20386;-64
2020/12/25 10:32:03;;;;;;;6.28;1.88;;;;;;;;;;4993810;28;20385;-66
2020/12/25 10:34:29;;;;;;;4.68;2.33;;;;;;;;;;4996429;28;20042;-64
2020/12/25 10:36:54;;;;;;;4.75;2.35;;;;;;;;;;4996575;28;20169;-65
2020/12/25 10:39:19;;;;;;;5.95;3.05;;;;;;;;;;4995375;28;20030;-65
2020/12/25 10:41:45;;;;;;;6.07;2.00;;;;;;;;;;4994488;28;20026;-65
2020/12/25 10:44:10;;;;;;;4.25;2.20;;;;;;;;;;4995320;28;20074;-65
2020/12/25 10:46:36;;;;;;;5.25;2.60;;;;;;;;;;4995663;28;20041;-65
2020/12/25 10:49:02;;;;;;;4.43;2.60;;;;;;;;;;4994301;28;20040;-65
2020/12/25 10:51:27;;;;;;;4.53;2.50;;;;;;;;;;4997385;28;20046;-65
2020/12/25 10:53:52;;;;;;;5.65;2.45;;;;;;;;;;4998558;28;20163;-67
2020/12/25 10:56:26;;;;;;;4.65;2.33;;;;;;;;;;4998660;28;20065;-65
2020/12/25 10:58:52;;;;;;;3.97;1.88;;;;;;;;;;4997885;28;20030;-67
2020/12/25 11:01:24;;;;;;;4.60;2.58;;;;;;;;;;4999940;28;20113;-66
2020/12/25 11:03:51;;;;;;;7.00;3.28;;;;;;;;;;4998870;28;20069;-66
2020/12/25 11:06:16;;;;;;;7.07;5.43;;;;;;;;;;4997258;28;20088;-66
2020/12/25 11:08:42;;;;;;;6.50;3.20;;;;;;;;;;5002064;28;20034;-65
2020/12/25 11:11:07;;;;;;;5.28;2.83;;;;;;;;;;4998514;28;20068;-64
2020/12/25 11:13:34;;;;;;;5.18;2.88;;;;;;;;;;4998085;28;20100;-66
2020/12/25 11:15:59;;;;;;;6.43;3.13;;;;;;;;;;4997791;28;20029;-65
2020/12/25 11:18:24;;;;;;;6.47;3.03;;;;;;;;;;5000120;28;20338;-65
2020/12/25 11:20:50;;;;;;;7.65;4.00;;;;;;;;;;4999865;28;20076;-65
2020/12/25 11:23:15;;;;;;;5.72;3.33;;;;;;;;;;4994282;28;20031;-65
2020/12/25 11:25:40;;;;;;;5.75;2.92;;;;;;;;;;5014059;28;20042;-65
2020/12/25 11:28:06;;;;;;;6.97;2.95;;;;;;;;;;4998310;28;20034;-65
2020/12/25 11:30:31;;;;;;;3.22;1.88;;;;;;;;;;4998442;28;20037;-66
2020/12/25 11:32:56;;;;;;;5.45;1.95;;;;;;;;;;4996661;28;20033;-64
2020/12/25 11:35:22;;;;;;;6.18;3.00;;;;;;;;;;4997430;28;20037;-65
2020/12/25 11:37:47;;;;;;;4.05;2.63;;;;;;;;;;4998088;28;20030;-65
2020/12/25 11:40:12;;;;;;;5.10;2.30;;;;;;;;;;4998450;28;20482;-65
2020/12/25 11:42:38;;;;;;;3.65;1.90;;;;;;;;;;4995491;28;20445;-64
2020/12/25 11:45:03;;;;;;;4.57;2.20;;;;;;;;;;4997529;28;20610;-65
2020/12/25 11:47:30;;;;;;;4.03;1.88;;;;;;;;;;4997596;28;20579;-66
2020/12/25 11:49:56;;;;;;;3.95;1.90;;;;;;;;;;4989676;28;20045;-66
2020/12/25 11:52:21;;;;;;;4.45;1.95;;;;;;;;;;4993569;28;20532;-65
2020/12/25 11:54:47;;;;;;;4.70;1.98;;;;;;;;;;4997280;28;20030;-65
2020/12/25 11:57:12;;;;;;;4.50;1.98;;;;;;;;;;4997184;28;20129;-66
2020/12/25 11:59:37;;;;;;;4.72;2.00;;;;;;;;;;4996082;28;20038;-65
2020/12/25 12:02:03;;;;;;;4.18;1.92;;;;;;;;;;4995513;28;20053;-66
2020/12/25 12:04:28;;;;;;;5.80;2.08;;;;;;;;;;4993882;28;20704;-60
2020/12/25 12:06:57;;;;;;;2.95;1.38;;;;;;;;;;4995183;28;20034;-66
2020/12/25 12:09:22;;;;;;;3.83;1.90;;;;;;;;;;4996714;28;20030;-66
2020/12/25 12:11:47;;;;;;;5.20;2.70;;;;;;;;;;4996658;28;20504;-66
2020/12/25 12:14:13;;;;;;;3.92;2.00;;;;;;;;;;4997665;28;20045;-66
2020/12/25 12:16:38;;;;;;;9.50;2.88;;;;;;;;;;4996821;28;20026;-66
2020/12/25 12:19:03;;;;;;;5.53;2.60;;;;;;;;;;4996305;28;20053;-65
2020/12/25 12:21:29;;;;;;;5.35;2.25;;;;;;;;;;4997075;28;20042;-66
2020/12/25 12:23:54;;;;;;;5.97;2.95;;;;;;;;;;4994395;28;20046;-66
2020/12/25 12:26:19;;;;;;;6.57;2.58;;;;;;;;;;4995566;28;20497;-66
2020/12/25 12:28:45;;;;;;;5.50;1.77;;;;;;;;;;4996802;28;20044;-67
2020/12/25 12:31:10;;;;;;;6.35;3.42;;;;;;;;;;4996615;28;20053;-67
2020/12/25 12:33:36;;;;;;;3.72;2.35;;;;;;;;;;4999536;28;20061;-68
2020/12/25 12:36:03;;;;;;;6.28;3.10;;;;;;;;;;4995386;28;20060;-66
2020/12/25 12:38:29;;;;;;;5.45;2.58;;;;;;;;;;4995690;28;20026;-66
2020/12/25 12:40:54;;;;;;;6.78;2.97;;;;;;;;;;4992379;28;20049;-66
2020/12/25 12:43:19;;;;;;;5.65;2.95;;;;;;;;;;4997392;28;20449;-66
2020/12/25 12:45:45;;;;;;;14.60;9.13;;;;;;;;;;4995815;28;20030;-66
2020/12/25 12:48:10;;;;;;;8.35;4.90;;;;;;;;;;4995260;28;20540;-65
2020/12/25 12:50:36;;;;;;;3.33;1.90;;;;;;;;;;4995972;28;20030;-66
2020/12/25 12:53:01;;;;;;;3.33;1.73;;;;;;;;;;4994018;28;20458;-65
2020/12/25 12:55:26;;;;;;;4.65;1.60;;;;;;;;;;4994832;28;20364;-66
2020/12/25 12:57:52;;;;;;;3.33;1.50;;;;;;;;;;4994615;28;20085;-65
2020/12/25 13:00:17;;;;;;;3.75;1.85;;;;;;;;;;4996708;28;20038;-65
2020/12/25 13:02:43;;;;;;;2.55;1.45;;;;;;;;;;5012812;28;20042;-66
2020/12/25 13:05:08;;;;;;;4.78;1.63;;;;;;;;;;4995629;28;20501;-65
2020/12/25 13:07:33;;;;;;;3.25;1.70;;;;;;;;;;4994076;28;20527;-67
2020/12/25 13:09:59;;;;;;;3.80;1.63;;;;;;;;;;4995023;28;20117;-65
2020/12/25 13:12:24;;;;;;;8.30;1.80;;;;;;;;;;4995802;28;20041;-65
2020/12/25 13:14:50;;;;;;;4.10;1.77;;;;;;;;;;4993546;28;20130;-66
2020/12/25 13:17:15;;;;;;;4.53;2.00;;;;;;;;;;4993885;28;20038;-66
2020/12/25 13:19:41;;;;;;;5.45;2.15;;;;;;;;;;4996245;28;20042;-65
2020/12/25 13:22:06;;;;;;;2.78;1.60;;;;;;;;;;4994039;28;20124;-65
2020/12/25 13:24:31;;;;;;;3.60;1.40;;;;;;;;;;4993899;28;20037;-66
2020/12/25 13:26:57;;;;;;;3.47;1.35;;;;;;;;;;4994445;28;20034;-65
2020/12/25 13:29:23;;;;;;;3.28;1.25;;;;;;;;;;4994351;28;20520;-64
2020/12/25 13:31:49;;;;;;;1.88;1.10;;;;;;;;;;4996339;28;20070;-65
2020/12/25 13:34:14;;;;;;;4.32;1.67;;;;;;;;;;4998603;28;20089;-65
2020/12/25 13:36:40;;;;;;;2.45;1.10;;;;;;;;;;4993166;28;20673;-64
2020/12/25 13:39:05;;;;;;;2.88;1.45;;;;;;;;;;4996002;28;20037;-65
2020/12/25 13:41:31;;;;;;;2.97;1.58;;;;;;;;;;4994770;28;20179;-64
2020/12/25 13:43:59;;;;;;;6.75;2.40;;;;;;;;;;4995014;28;20103;-64
2020/12/25 13:46:24;;;;;;;4.45;2.08;;;;;;;;;;4996111;28;20034;-64
2020/12/25 13:48:50;;;;;;;3.72;1.98;;;;;;;;;;4995284;28;20045;-65
2020/12/25 13:51:17;;;;;;;2.75;1.42;;;;;;;;;;4995974;28;20045;-65
2020/12/25 13:53:43;;;;;;;3.10;1.30;;;;;;;;;;4995648;28;20030;-65
2020/12/25 13:56:09;;;;;;;2.83;1.27;;;;;;;;;;4995640;28;20108;-65
2020/12/25 13:58:35;;;;;;;3.78;1.60;;;;;;;;;;4995597;28;20038;-65
2020/12/25 14:01:05;;;;;;;5.22;1.42;;;;;;;;;;4995188;28;20039;-65
2020/12/25 14:03:34;;;;;;;5.65;1.52;;;;;;;;;;4999760;28;20053;-65
2020/12/25 14:06:00;;;;;;;3.97;1.38;;;;;;;;;;4994046;28;20112;-65
2020/12/25 14:08:25;;;;;;;3.42;1.75;;;;;;;;;;5006670;28;20085;-65
2020/12/25 14:10:52;;;;;;;6.95;2.75;;;;;;;;;;4993398;28;20068;-65
2020/12/25 14:13:17;;;;;;;5.05;1.58;;;;;;;;;;4995229;28;20037;-64
2020/12/25 14:15:42;;;;;;;3.15;1.50;;;;;;;;;;4993619;28;20037;-65
2020/12/25 14:18:08;;;;;;;3.70;1.40;;;;;;;;;;4993613;28;20472;-65
2020/12/25 14:20:33;;;;;;;5.38;1.73;;;;;;;;;;4994948;28;20343;-65
2020/12/25 14:22:58;;;;;;;4.95;1.92;;;;;;;;;;4993370;28;20088;-65
2020/12/25 14:25:24;;;;;;;5.60;1.65;;;;;;;;;;4994128;28;20070;-65
2020/12/25 14:27:49;;;;;;;4.18;1.30;;;;;;;;;;4997745;28;20132;-65
2020/12/25 14:30:14;;;;;;;3.95;1.83;;;;;;;;;;4995360;28;20094;-65
2020/12/25 14:32:40;;;;;;;10.30;3.95;;;;;;;;;;4996476;28;20045;-65
2020/12/25 14:35:05;;;;;;;11.23;4.07;;;;;;;;;;4995536;28;20045;-65